Latest Weather Observations for Moruya Airport

IDN60901

Issued at 2:41 pm EDT Tuesday 15 October 2019 (issued every 10 minutes, with the page automatically refreshed every 10 minutes)

About weather observations | Map of Canberra area stations | Latest observations for Canberra area | Other Formats
Station Details ID: 069148 Name: MORUYA AIRPORT AWS Lat: -35.90 Lon: 150.14 Height: 4.0 m
Data from the previous 72 hours. | See also: Recent months at Moruya Airport
Date/Time
EDT
Temp
°C
App
Temp
°C
Dew
Point
°C
Rel
Hum
%
Delta-T
°C
Wind Press
QNH
hPa
Press
MSL
hPa
Rain since
9am
mm
Dir  Spd
km/h
Gust
km/h
Spd
kts
Gust
kts
15/02:30pm 21.3 20.6 17.3 78 2.5 ENE 17 24 9 13 1009.3 1009.2 0.0
15/02:00pm 21.7 21.2 17.7 78 2.5 ENE 17 20 9 11 1010.2 1010.1 0.0
15/01:30pm 21.1 20.2 16.9 77 2.6 ENE 17 20 9 11 1010.3 1010.2 0.0
15/01:00pm 20.7 20.3 16.3 76 2.7 ESE 13 17 7 9 1010.6 1010.5 0.0
15/12:30pm 20.0 18.9 15.4 75 2.7 E 15 17 8 9 1010.8 1010.7 0.0
15/12:00pm 19.8 18.4 14.6 72 3.0 E 15 19 8 10 1011.1 1011.0 0.0
15/11:30am 19.2 17.0 13.2 68 3.4 ENE 17 20 9 11 1011.7 1011.6 0.0
15/11:00am 18.9 17.3 11.7 63 4.0 E 11 15 6 8 1012.0 1011.9 0.0
15/10:30am 18.7 17.0 10.0 57 4.6 ENE 9 13 5 7 1012.3 1012.2 0.0
15/10:00am 17.1 17.4 10.9 67 3.3 CALM 0 0 0 0 1012.7 1012.6 0.0
15/09:30am 15.7 16.1 11.3 75 2.4 CALM 0 0 0 0 1012.8 1012.7 0.0
15/09:00am 14.7 15.2 11.7 82 1.6 CALM 0 0 0 0 1012.8 1012.7 0.0
15/08:30am 12.7 13.2 11.6 93 0.6 CALM 0 0 0 0 1012.7 1012.6 0.0
15/08:00am 12.2 12.7 11.6 96 0.3 CALM 0 0 0 0 1012.7 1012.6 0.0
15/07:30am 10.5 10.5 9.9 96 0.3 CALM 0 0 0 0 1012.7 1012.6 0.0
15/07:00am 8.6 7.8 8.0 96 0.3 WNW 2 6 1 3 1012.5 1012.4 0.0
15/06:30am 7.7 7.0 7.1 96 0.3 CALM 0 0 0 0 1012.3 1012.2 0.0
15/06:00am 7.1 6.3 6.5 96 0.3 CALM 0 0 0 0 1012.1 1012.0 0.0
15/05:30am 7.2 6.4 6.5 95 0.3 CALM 0 0 0 0 1012.0 1011.9 0.0
15/05:00am 7.7 7.0 7.0 95 0.3 CALM 0 0 0 0 1011.9 1011.8 0.0
15/04:34am 7.7 7.0 7.0 95 0.3 CALM 0 0 0 0 1011.8 1011.7 0.0
15/04:30am 7.8 7.1 7.1 95 0.3 CALM 0 0 0 0 1011.9 1011.8 0.0
15/04:16am 8.0 7.4 7.2 95 0.4 CALM 0 0 0 0 1011.9 1011.8 0.0
15/04:13am 8.1 7.5 7.3 95 0.4 CALM 0 0 0 0 1011.9 1011.8 0.0
15/04:00am 8.0 7.4 7.2 95 0.4 CALM 0 0 0 0 1012.0 1011.9 0.0
15/03:33am 8.4 7.8 7.6 95 0.4 CALM 0 0 0 0 1012.2 1012.1 0.0
15/03:30am 8.4 7.8 7.6 95 0.4 CALM 0 0 0 0 1012.3 1012.2 0.0
15/03:15am 8.9 8.5 8.1 95 0.4 CALM 0 0 0 0 1012.4 1012.3 0.0
15/03:00am 9.2 8.8 8.4 95 0.4 CALM 0 0 0 0 1012.5 1012.4 0.0
15/02:36am 8.8 8.3 8.0 95 0.4 CALM 0 0 0 0 1012.6 1012.5 0.0
15/02:33am 9.1 8.7 8.3 95 0.4 CALM 0 0 0 0 1012.6 1012.5 0.0
15/02:30am 9.2 8.8 8.4 95 0.4 CALM 0 0 0 0 1012.6 1012.5 0.0
15/02:00am 9.7 9.4 8.8 94 0.4 CALM 0 0 0 0 1012.9 1012.8 0.0
15/01:30am 10.1 9.9 9.2 94 0.4 CALM 0 0 0 0 1013.2 1013.1 0.0
15/01:23am 10.4 10.3 9.5 94 0.4 CALM 0 0 0 0 1013.3 1013.2 0.0
15/01:00am 10.5 10.4 9.6 94 0.5 CALM 0 0 0 0 1013.4 1013.3 0.0
15/12:30am 11.2 11.3 10.3 94 0.5 CALM 0 0 0 0 1013.6 1013.5 0.0
15/12:00am 11.4 10.3 10.5 94 0.5 WNW 7 9 4 5 1013.8 1013.7 0.0
 
Date/Time
EDT
Temp
°C
App
Temp
°C
Dew
Point
°C
Rel
Hum
%
Delta-T
°C
Wind Press
QNH
hPa
Press
MSL
hPa
Rain since
9am
mm
Dir  Spd
km/h
Gust
km/h
Spd
kts
Gust
kts
14/11:30pm 11.7 10.6 10.6 93 0.6 NW 7 9 4 5 1013.9 1013.8 0.0
14/11:17pm 11.3 11.0 10.2 93 0.6 N 2 7 1 4 1013.9 1013.8 0.0
14/11:00pm 12.3 12.7 11.2 93 0.6 CALM 0 0 0 0 1013.9 1013.8 0.0
14/10:42pm 11.9 11.7 10.6 92 0.7 NW 2 6 1 3 1013.8 1013.7 0.0
14/10:30pm 12.7 13.1 11.4 92 0.7 CALM 0 0 0 0 1013.8 1013.7 0.0
14/10:00pm 13.2 12.6 11.8 91 0.7 SW 6 7 3 4 1013.8 1013.7 0.0
14/09:30pm 13.2 12.4 11.1 87 1.1 WNW 6 6 3 3 1014.0 1013.9 0.0
14/09:00pm 14.9 15.4 12.8 87 1.2 W 2 7 1 4 1013.9 1013.8 0.0
14/08:30pm 16.0 16.3 13.3 84 1.5 WNW 4 7 2 4 1013.8 1013.7 0.0
14/08:00pm 17.3 18.2 14.0 81 1.9 NNW 2 9 1 5 1013.6 1013.5 0.0
14/07:30pm 18.0 19.4 14.5 80 2.0 CALM 0 0 0 0 1013.4 1013.3 0.0
14/07:00pm 18.8 18.5 14.3 75 2.6 NE 9 11 5 6 1013.1 1013.0 0.0
14/06:30pm 19.3 18.5 13.0 67 3.6 N 9 13 5 7 1012.9 1012.8 0.0
14/06:00pm 19.3 17.3 13.9 71 3.1 NNE 17 20 9 11 1012.7 1012.6 0.0
14/05:30pm 19.4 17.4 14.0 71 3.1 NE 17 22 9 12 1012.4 1012.3 0.0
14/05:00pm 19.6 17.8 14.4 72 3.0 NE 17 22 9 12 1012.2 1012.1 0.0
14/04:30pm 20.1 18.7 14.5 70 3.3 NE 15 19 8 10 1012.3 1012.2 0.0
14/04:00pm 19.8 17.4 13.7 68 3.5 NE 19 24 10 13 1012.4 1012.3 0.0
14/03:30pm 20.2 17.7 13.6 66 3.8 NE 19 28 10 15 1012.5 1012.4 0.0
14/03:00pm 20.4 17.7 13.6 65 3.9 NE 20 28 11 15 1012.8 1012.7 0.0
14/02:30pm 19.8 16.9 13.0 65 3.8 NE 20 24 11 13 1013.4 1013.3 0.0
14/02:00pm 19.4 16.4 12.7 65 3.8 NE 20 24 11 13 1013.8 1013.7 0.0
14/01:30pm 18.5 15.7 12.5 68 3.3 NE 19 24 10 13 1014.2 1014.1 0.0
14/01:00pm 18.7 15.5 11.8 64 3.8 NE 20 24 11 13 1014.3 1014.2 0.0
14/12:30pm 18.8 15.9 12.3 66 3.6 ENE 19 20 10 11 1014.7 1014.6 0.0
14/12:00pm 18.2 15.1 11.7 66 3.6 NE 19 20 10 11 1015.1 1015.0 0.0
14/11:30am 17.7 15.3 11.3 66 3.5 ENE 15 19 8 10 1015.6 1015.5 0.0
14/11:00am 17.6 15.8 10.9 65 3.6 E 11 15 6 8 1015.7 1015.6 0.0
14/10:30am 17.3 15.5 10.9 66 3.4 ENE 11 15 6 8 1016.0 1015.9 0.0
14/10:00am 16.5 14.1 10.1 66 3.4 ENE 13 15 7 8 1016.3 1016.3 0.0
14/09:30am 17.1 15.6 10.7 66 3.4 NE 9 15 5 8 1016.3 1016.3 0.0
14/09:00am 15.5 15.5 11.1 75 2.3 NE 2 6 1 3 1016.4 1016.4 0.0
14/08:30am 14.6 14.8 10.4 76 2.2 CALM 0 0 0 0 1016.5 1016.5 0.0
14/08:00am 11.8 10.8 10.2 90 0.8 SW 6 7 3 4 1016.8 1016.8 0.0
14/07:30am 10.4 10.3 9.6 95 0.4 CALM 0 6 0 3 1016.7 1016.7 0.0
14/07:00am 8.2 7.6 7.4 95 0.4 CALM 0 0 0 0 1016.5 1016.5 0.0
14/06:30am 7.0 6.2 6.3 95 0.3 CALM 0 0 0 0 1016.5 1016.5 0.0
14/06:00am 6.8 5.1 5.9 94 0.4 WNW 4 6 2 3 1016.3 1016.3 0.0
14/05:30am 7.1 6.2 6.2 94 0.4 CALM 0 0 0 0 1016.1 1016.1 0.0
14/05:00am 7.6 6.8 6.7 94 0.4 CALM 0 4 0 2 1016.2 1016.2 0.0
14/04:30am 7.9 7.2 6.8 93 0.5 CALM 0 0 0 0 1016.2 1016.2 0.0
14/04:00am 7.9 7.1 6.5 91 0.6 CALM 0 0 0 0 1016.4 1016.4 0.0
14/03:30am 9.0 8.4 7.6 91 0.7 CALM 0 0 0 0 1016.7 1016.7 0.0
14/03:00am 9.6 9.1 8.0 90 0.8 CALM 0 0 0 0 1017.1 1017.1 0.0
14/02:30am 10.2 9.9 8.5 89 0.8 CALM 0 0 0 0 1017.6 1017.6 0.0
14/02:00am 10.1 9.7 8.4 89 0.8 CALM 0 6 0 3 1017.9 1017.9 0.0
14/01:30am 9.6 7.8 7.9 89 0.8 WNW 7 9 4 5 1018.3 1018.3 0.0
14/01:00am 10.2 8.4 8.1 87 1.0 NW 7 9 4 5 1018.6 1018.6 0.0
14/12:30am 11.3 9.6 8.5 83 1.4 NW 7 9 4 5 1018.9 1018.9 0.0
14/12:00am 11.5 9.8 8.5 82 1.5 NW 7 9 4 5 1019.1 1019.1 0.0
 
Date/Time
EDT
Temp
°C
App
Temp
°C
Dew
Point
°C
Rel
Hum
%
Delta-T
°C
Wind Press
QNH
hPa
Press
MSL
hPa
Rain since
9am
mm
Dir  Spd
km/h
Gust
km/h
Spd
kts
Gust
kts
13/11:30pm 12.1 10.7 8.9 81 1.6 NW 6 7 3 4 1019.4 1019.4 0.0
13/11:00pm 12.7 11.5 9.5 81 1.6 NW 6 7 3 4 1019.7 1019.7 0.0
13/10:30pm 12.9 11.6 9.2 78 1.9 NW 6 7 3 4 1019.7 1019.7 0.0
13/10:00pm 13.5 12.2 9.2 75 2.2 NNW 6 7 3 4 1019.7 1019.7 0.0
13/09:30pm 14.1 13.9 9.1 72 2.5 CALM 0 0 0 0 1019.9 1019.9 0.0
13/09:00pm 14.3 14.1 8.9 70 2.7 CALM 0 0 0 0 1020.0 1020.0 0.0
13/08:30pm 14.5 13.0 8.5 67 3.0 NNW 6 7 3 4 1019.6 1019.6 0.0
13/08:00pm 15.2 13.0 8.0 62 3.6 N 9 11 5 6 1019.2 1019.2 0.0
13/07:30pm 15.7 12.8 8.2 61 3.8 NNE 13 19 7 10 1019.0 1019.0 0.0
13/07:00pm 16.1 12.4 7.8 58 4.2 NE 17 22 9 12 1018.8 1018.8 0.0
13/06:30pm 16.1 12.0 7.8 58 4.2 NNE 19 24 10 13 1018.7 1018.7 0.0
13/06:00pm 16.5 12.7 7.7 56 4.4 NE 17 20 9 11 1018.7 1018.7 0.0
13/05:30pm 16.8 13.2 8.2 57 4.4 NE 17 24 9 13 1018.6 1018.6 0.0
13/05:00pm 17.5 13.5 9.2 58 4.3 NE 20 26 11 14 1018.5 1018.5 0.0
13/04:30pm 16.8 12.8 8.2 57 4.4 NE 19 24 10 13 1018.4 1018.4 0.0
13/04:00pm 17.4 13.6 9.1 58 4.3 NE 19 24 10 13 1018.6 1018.6 0.0
13/03:30pm 17.0 12.8 8.4 57 4.4 NE 20 26 11 14 1018.6 1018.6 0.0
13/03:00pm 17.1 12.7 9.0 59 4.2 ENE 22 28 12 15 1018.8 1018.8 0.0
13/02:30pm 17.6 13.3 9.5 59 4.2 ENE 22 28 12 15 1019.1 1019.1 0.0
13/02:00pm 17.5 13.0 9.9 61 4.0 ENE 24 28 13 15 1019.4 1019.4 0.0
13/01:30pm 17.5 12.4 7.5 52 5.0 ENE 24 30 13 16 1019.6 1019.6 0.0
13/01:00pm 17.7 13.6 8.6 55 4.7 ENE 20 26 11 14 1020.0 1020.0 0.0
13/12:30pm 16.8 12.6 7.4 54 4.7 E 19 24 10 13 1020.4 1020.4 0.0
13/12:00pm 16.8 13.0 7.4 54 4.7 ENE 17 20 9 11 1020.6 1020.6 0.0
13/11:30am 17.0 13.4 8.4 57 4.4 E 17 20 9 11 1020.9 1020.9 0.0
13/11:00am 16.2 13.2 7.9 58 4.2 E 13 17 7 9 1021.2 1021.2 0.0
13/10:30am 15.8 12.7 7.3 57 4.2 E 13 15 7 8 1021.5 1021.5 0.0
13/10:00am 15.8 13.7 8.3 61 3.8 SE 9 13 5 7 1021.8 1021.8 0.0
13/09:30am 14.6 12.5 8.3 66 3.2 SW 9 13 5 7 1022.0 1022.0 0.0
13/09:00am 13.6 11.8 9.5 76 2.1 WSW 9 15 5 8 1022.0 1022.0 0.0
13/08:30am 11.7 9.9 9.3 85 1.2 WSW 9 13 5 7 1021.7 1021.7 0.0
13/08:00am 10.2 8.8 8.8 91 0.7 SW 6 9 3 5 1021.6 1021.6 0.0
13/07:30am 8.8 6.6 7.9 94 0.4 W 9 13 5 7 1021.7 1021.7 0.0
13/07:00am 7.6 5.2 6.9 95 0.3 WSW 9 13 5 7 1021.6 1021.6 0.0
13/06:56am 7.4 4.9 6.7 95 0.3 WSW 9 13 5 7 1021.6 1021.6 0.0
13/06:33am 5.9 4.4 4.9 93 0.4 W 2 7 1 4 1021.5 1021.5 0.0
13/06:30am 6.0 3.7 5.0 93 0.4 W 6 9 3 5 1021.5 1021.5 0.0
13/06:18am 5.9 3.6 4.9 93 0.4 WSW 6 9 3 5 1021.4 1021.4 0.0
13/06:00am 6.4 5.4 5.4 93 0.4 CALM 0 2 0 1 1021.3 1021.3 0.0
13/05:30am 7.6 5.1 6.5 93 0.5 WSW 9 13 5 7 1021.0 1021.0 0.0
13/05:00am 7.9 5.5 6.8 93 0.5 WSW 9 13 5 7 1021.1 1021.1 0.0
13/04:30am 8.1 5.4 7.2 94 0.4 W 11 19 6 10 1021.0 1021.0 0.0
13/04:00am 7.6 5.4 6.4 92 0.5 WSW 7 11 4 6 1020.7 1020.7 0.0
13/03:30am 8.2 6.2 7.0 92 0.6 W 7 11 4 6 1020.9 1020.9 0.0
13/03:00am 8.6 6.6 7.2 91 0.7 W 7 11 4 6 1021.2 1021.2 0.0
13/02:30am 8.9 6.6 7.4 90 0.7 WNW 9 13 5 7 1021.5 1021.5 0.0
13/02:00am 9.5 6.9 7.9 90 0.8 W 11 19 6 10 1021.7 1021.7 0.0
13/01:30am 9.5 7.2 7.6 88 0.9 WSW 9 13 5 7 1022.0 1022.0 0.0
13/01:00am 10.1 7.9 7.9 86 1.1 WNW 9 11 5 6 1022.0 1022.0 0.0
13/12:30am 10.9 9.2 8.5 85 1.2 WNW 7 9 4 5 1022.3 1022.3 0.0
13/12:00am 11.1 9.4 8.3 83 1.4 W 7 11 4 6 1022.4 1022.4 0.0
 
Date/Time
EDT
Temp
°C
App
Temp
°C
Dew
Point
°C
Rel
Hum
%
Delta-T
°C
Wind Press
QNH
hPa
Press
MSL
hPa
Rain since
9am
mm
Dir  Spd
km/h
Gust
km/h
Spd
kts
Gust
kts
12/11:30pm 11.3 9.6 8.5 83 1.4 WSW 7 11 4 6 1022.5 1022.5 0.0
12/11:00pm 11.4 9.1 9.1 86 1.1 WSW 11 17 6 9 1022.5 1022.5 0.0
12/10:30pm 11.2 9.6 8.9 86 1.1 W 7 11 4 6 1022.2 1022.2 0.0
12/10:00pm 11.6 9.7 9.2 85 1.2 W 9 13 5 7 1022.1 1022.1 0.0
12/09:30pm 11.9 10.4 9.1 83 1.4 WNW 7 11 4 6 1021.9 1021.9 0.0
12/09:00pm 12.3 10.7 8.8 79 1.7 WNW 7 13 4 7 1021.8 1021.8 0.0
12/08:30pm 12.9 10.9 8.6 75 2.1 SSW 9 15 5 8 1021.3 1021.3 0.0
12/08:00pm 13.4 11.2 8.0 70 2.7 S 9 13 5 7 1020.9 1020.9 0.0
12/07:30pm 13.4 10.5 8.3 71 2.5 SSW 13 22 7 12 1020.7 1020.7 0.0
12/07:00pm 14.1 10.6 7.4 64 3.3 SE 15 20 8 11 1020.3 1020.3 0.0
12/06:30pm 14.5 11.5 7.5 63 3.5 SE 13 20 7 11 1020.0 1020.0 0.0
12/06:00pm 14.6 11.1 7.4 62 3.5 SE 15 20 8 11 1019.9 1019.9 0.0
12/05:30pm 14.7 11.0 8.0 64 3.3 SSE 17 20 9 11 1019.7 1019.7 0.0
12/05:00pm 14.7 10.8 7.0 60 3.8 SSE 17 22 9 12 1019.5 1019.5 0.0
12/04:30pm 15.0 12.1 8.3 64 3.4 SE 13 17 7 9 1019.3 1019.3 0.0
12/04:00pm 15.0 11.8 8.3 64 3.4 SE 15 19 8 10 1019.2 1019.2 0.0
12/03:30pm 14.8 11.2 8.3 65 3.3 SE 17 22 9 12 1019.3 1019.3 0.0
12/03:00pm 15.4 11.9 7.4 59 4.0 SSE 15 22 8 12 1019.4 1019.4 0.0

Latest Capital City Observations: Canberra | Sydney | Melbourne | Brisbane | Adelaide | Perth | Hobart | Darwin

Other formats

Comma delimited format used in spreadsheet applications
http://www.bom.gov.au/fwo/IDN60903/IDN60903.95937.axf

JavaScript Object Notation format (JSON) in row-major order
http://www.bom.gov.au/fwo/IDN60903/IDN60903.95937.json

Data quality

Most of these data are generated automatically and are frequently updated. Quality checks on data are not normally performed. It is possible for incorrect values to appear. Refer to information at About Latest Weather Observations and please check the disclaimer before using these data.